Terminal Aerodrome Forecast
Issued by NWS Boise, ID

Home | Current Version | Previous Version | Text Only | Print | Product List | Glossary On
Versions: 1 2 3 4 5 6 7 8 9 10 11 12 13 14 15 16 17 18 19 20 21 22 23 24 25 26 27 28 29 30 31
000
FTUS45 KBOI 311722
TAFBNO
TAF
KBNO 311722Z 3118/0118 VRB04KT 1/2SM FZFG VV002
      TEMPO 3118/3120 6SM BR SCT002
     FM312000 VRB06KT P6SM FEW200
     FM010600 28003KT P6SM OVC150=

USA.gov is the U.S. government's official web portal to all federal, state and local government web resources and services.